sensor_id;sensor_type;location;lat;lon;timestamp;pressure;altitude;pressure_sealevel;temperature;humidity
36092;BME280;22147;52.388;13.390;2024-03-06T00:01:59;101245.63;;;-3.67;100.00
36092;BME280;22147;52.388;13.390;2024-03-06T00:04:27;101252.94;;;-3.67;100.00
36092;BME280;22147;52.388;13.390;2024-03-06T00:06:58;101252.13;;;-3.68;100.00
36092;BME280;22147;52.388;13.390;2024-03-06T00:09:27;101253.38;;;-3.71;100.00
36092;BME280;22147;52.388;13.390;2024-03-06T00:11:57;101252.34;;;-3.70;100.00
36092;BME280;22147;52.388;13.390;2024-03-06T00:14:27;101258.78;;;-3.71;100.00
36092;BME280;22147;52.388;13.390;2024-03-06T00:16:57;101264.22;;;-3.71;100.00
36092;BME280;22147;52.388;13.390;2024-03-06T00:19:27;101259.03;;;-3.72;100.00
36092;BME280;22147;52.388;13.390;2024-03-06T00:21:59;101264.69;;;-3.74;100.00
36092;BME280;22147;52.388;13.390;2024-03-06T00:24:30;101269.28;;;-3.74;100.00
36092;BME280;22147;52.388;13.390;2024-03-06T00:27:00;101274.72;;;-3.74;100.00
36092;BME280;22147;52.388;13.390;2024-03-06T00:29:31;101274.09;;;-3.76;100.00
36092;BME280;22147;52.388;13.390;2024-03-06T00:32:00;101278.09;;;-3.79;100.00
36092;BME280;22147;52.388;13.390;2024-03-06T00:34:31;101279.94;;;-3.79;100.00
36092;BME280;22147;52.388;13.390;2024-03-06T00:37:01;101286.25;;;-3.79;100.00
36092;BME280;22147;52.388;13.390;2024-03-06T00:39:31;101285.38;;;-3.79;100.00
36092;BME280;22147;52.388;13.390;2024-03-06T00:42:01;101288.09;;;-3.79;100.00
36092;BME280;22147;52.388;13.390;2024-03-06T00:44:31;101295.41;;;-3.80;100.00
36092;BME280;22147;52.388;13.390;2024-03-06T00:47:01;101295.63;;;-3.81;100.00
36092;BME280;22147;52.388;13.390;2024-03-06T00:49:32;101296.91;;;-3.84;100.00
36092;BME280;22147;52.388;13.390;2024-03-06T00:52:02;101305.25;;;-3.85;100.00
36092;BME280;22147;52.388;13.390;2024-03-06T00:54:34;101304.63;;;-3.88;100.00
36092;BME280;22147;52.388;13.390;2024-03-06T00:57:04;101308.63;;;-3.90;100.00
36092;BME280;22147;52.388;13.390;2024-03-06T00:59:34;101304.03;;;-3.90;100.00
36092;BME280;22147;52.388;13.390;2024-03-06T01:02:04;101313.22;;;-3.91;100.00
36092;BME280;22147;52.388;13.390;2024-03-06T01:04:34;101308.00;;;-3.92;100.00
36092;BME280;22147;52.388;13.390;2024-03-06T01:07:04;101309.28;;;-3.95;100.00
36092;BME280;22147;52.388;13.390;2024-03-06T01:09:34;101310.34;;;-3.96;100.00
36092;BME280;22147;52.388;13.390;2024-03-06T01:12:01;101317.88;;;-3.98;100.00
36092;BME280;22147;52.388;13.390;2024-03-06T01:14:31;101311.84;;;-4.00;100.00
36092;BME280;22147;52.388;13.390;2024-03-06T01:17:02;101319.34;;;-4.02;100.00
36092;BME280;22147;52.388;13.390;2024-03-06T01:19:31;101318.28;;;-4.01;100.00
36092;BME280;22147;52.388;13.390;2024-03-06T01:21:58;101326.66;;;-4.02;100.00
36092;BME280;22147;52.388;13.390;2024-03-06T01:24:27;101329.34;;;-4.02;100.00
36092;BME280;22147;52.388;13.390;2024-03-06T01:26:57;101321.22;;;-4.02;100.00
36092;BME280;22147;52.388;13.390;2024-03-06T01:29:31;101319.56;;;-4.03;100.00
36092;BME280;22147;52.388;13.390;2024-03-06T01:32:01;101326.88;;;-4.04;100.00
36092;BME280;22147;52.388;13.390;2024-03-06T01:34:32;101331.69;;;-4.06;100.00
36092;BME280;22147;52.388;13.390;2024-03-06T01:37:02;101325.41;;;-4.06;100.00
36092;BME280;22147;52.388;13.390;2024-03-06T01:39:32;101324.59;;;-4.07;100.00
36092;BME280;22147;52.388;13.390;2024-03-06T01:42:05;101325.84;;;-4.10;100.00
36092;BME280;22147;52.388;13.390;2024-03-06T01:44:35;101334.00;;;-4.10;100.00
36092;BME280;22147;52.388;13.390;2024-03-06T01:47:05;101334.81;;;-4.09;100.00
36092;BME280;22147;52.388;13.390;2024-03-06T01:49:37;101337.78;;;-4.11;100.00
36092;BME280;22147;52.388;13.390;2024-03-06T01:52:16;101336.09;;;-4.12;100.00
36092;BME280;22147;52.388;13.390;2024-03-06T01:54:50;101339.63;;;-4.11;100.00
36092;BME280;22147;52.388;13.390;2024-03-06T01:57:21;101332.75;;;-4.14;100.00
36092;BME280;22147;52.388;13.390;2024-03-06T01:59:52;101342.78;;;-4.14;100.00
36092;BME280;22147;52.388;13.390;2024-03-06T02:02:23;101332.75;;;-4.14;100.00
36092;BME280;22147;52.388;13.390;2024-03-06T02:04:54;101342.78;;;-4.14;100.00
36092;BME280;22147;52.388;13.390;2024-03-06T02:07:25;101341.97;;;-4.15;100.00
36092;BME280;22147;52.388;13.390;2024-03-06T02:09:55;101343.00;;;-4.16;100.00
36092;BME280;22147;52.388;13.390;2024-03-06T02:12:26;101336.13;;;-4.18;100.00
36092;BME280;22147;52.388;13.390;2024-03-06T02:14:57;101337.16;;;-4.19;100.00
36092;BME280;22147;52.388;13.390;2024-03-06T02:17:28;101339.88;;;-4.19;100.00
36092;BME280;22147;52.388;13.390;2024-03-06T02:19:59;101340.94;;;-4.20;100.00
36092;BME280;22147;52.388;13.390;2024-03-06T02:22:29;101341.34;;;-4.23;100.00
36092;BME280;22147;52.388;13.390;2024-03-06T02:25:00;101340.53;;;-4.24;100.00
36092;BME280;22147;52.388;13.390;2024-03-06T02:27:30;101340.53;;;-4.24;100.00
36092;BME280;22147;52.388;13.390;2024-03-06T02:30:01;101340.72;;;-4.25;100.00
36092;BME280;22147;52.388;13.390;2024-03-06T02:32:30;101339.09;;;-4.26;100.00
36092;BME280;22147;52.388;13.390;2024-03-06T02:35:02;101345.56;;;-4.27;100.00
36092;BME280;22147;52.388;13.390;2024-03-06T02:37:33;101338.47;;;-4.28;100.00
36092;BME280;22147;52.388;13.390;2024-03-06T02:40:06;101352.22;;;-4.30;100.00
36092;BME280;22147;52.388;13.390;2024-03-06T02:42:40;101347.88;;;-4.31;100.00
36092;BME280;22147;52.388;13.390;2024-03-06T02:45:11;101363.06;;;-4.30;100.00
36092;BME280;22147;52.388;13.390;2024-03-06T02:47:42;101351.59;;;-4.32;100.00
36092;BME280;22147;52.388;13.390;2024-03-06T02:50:13;101353.94;;;-4.36;100.00
36092;BME280;22147;52.388;13.390;2024-03-06T02:52:41;101348.50;;;-4.36;100.00
36092;BME280;22147;52.388;13.390;2024-03-06T02:55:11;101349.53;;;-4.37;100.00
36092;BME280;22147;52.388;13.390;2024-03-06T02:57:41;101348.94;;;-4.39;100.00
36092;BME280;22147;52.388;13.390;2024-03-06T03:00:12;101353.31;;;-4.38;100.00
36092;BME280;22147;52.388;13.390;2024-03-06T03:02:43;101349.13;;;-4.40;100.00
36092;BME280;22147;52.388;13.390;2024-03-06T03:05:14;101353.72;;;-4.41;100.00
36092;BME280;22147;52.388;13.390;2024-03-06T03:07:44;101352.06;;;-4.42;100.00
36092;BME280;22147;52.388;13.390;2024-03-06T03:10:12;101346.84;;;-4.43;100.00
36092;BME280;22147;52.388;13.390;2024-03-06T03:12:41;101355.00;;;-4.43;100.00
36092;BME280;22147;52.388;13.390;2024-03-06T03:15:10;101351.47;;;-4.44;100.00
36092;BME280;22147;52.388;13.390;2024-03-06T03:17:38;101363.56;;;-4.46;100.00
36092;BME280;22147;52.388;13.390;2024-03-06T03:20:10;101358.97;;;-4.46;100.00
36092;BME280;22147;52.388;13.390;2024-03-06T03:22:43;101362.09;;;-4.49;100.00
36092;BME280;22147;52.388;13.390;2024-03-06T03:25:14;101375.66;;;-4.49;100.00
36092;BME280;22147;52.388;13.390;2024-03-06T03:27:44;101373.78;;;-4.48;100.00
36092;BME280;22147;52.388;13.390;2024-03-06T03:30:14;101384.63;;;-4.48;100.00
36092;BME280;22147;52.388;13.390;2024-03-06T03:32:46;101383.59;;;-4.47;100.00
36092;BME280;22147;52.388;13.390;2024-03-06T03:35:16;101385.25;;;-4.46;100.00
36092;BME280;22147;52.388;13.390;2024-03-06T03:37:46;101388.16;;;-4.41;100.00
36092;BME280;22147;52.388;13.390;2024-03-06T03:40:17;101379.81;;;-4.40;100.00
36092;BME280;22147;52.388;13.390;2024-03-06T03:42:48;101381.47;;;-4.39;100.00
36092;BME280;22147;52.388;13.390;2024-03-06T03:45:19;101385.00;;;-4.38;100.00
36092;BME280;22147;52.388;13.390;2024-03-06T03:47:50;101392.75;;;-4.42;100.00
36092;BME280;22147;52.388;13.390;2024-03-06T03:50:20;101391.91;;;-4.42;100.00
36092;BME280;22147;52.388;13.390;2024-03-06T03:52:50;101392.75;;;-4.42;100.00
36092;BME280;22147;52.388;13.390;2024-03-06T03:55:21;101397.13;;;-4.41;100.00
36092;BME280;22147;52.388;13.390;2024-03-06T03:57:51;101401.50;;;-4.40;100.00
36092;BME280;22147;52.388;13.390;2024-03-06T04:00:24;101395.47;;;-4.42;100.00
36092;BME280;22147;52.388;13.390;2024-03-06T04:02:54;101389.81;;;-4.40;100.00
36092;BME280;22147;52.388;13.390;2024-03-06T04:05:25;101391.69;;;-4.41;100.00
36092;BME280;22147;52.388;13.390;2024-03-06T04:07:55;101389.41;;;-4.44;100.00
36092;BME280;22147;52.388;13.390;2024-03-06T04:10:26;101397.75;;;-4.45;100.00
36092;BME280;22147;52.388;13.390;2024-03-06T04:12:57;101399.84;;;-4.47;100.00
36092;BME280;22147;52.388;13.390;2024-03-06T04:15:29;101407.38;;;-4.50;100.00
36092;BME280;22147;52.388;13.390;2024-03-06T04:18:01;101402.13;;;-4.51;100.00
36092;BME280;22147;52.388;13.390;2024-03-06T04:20:31;101401.75;;;-4.48;100.00
36092;BME280;22147;52.388;13.390;2024-03-06T04:23:01;101404.00;;;-4.45;100.00
36092;BME280;22147;52.388;13.390;2024-03-06T04:25:32;101394.44;;;-4.47;100.00
36092;BME280;22147;52.388;13.390;2024-03-06T04:28:03;101397.78;;;-4.52;100.00
36092;BME280;22147;52.388;13.390;2024-03-06T04:30:34;101403.59;;;-4.55;100.00
36092;BME280;22147;52.388;13.390;2024-03-06T04:33:04;101404.88;;;-4.58;100.00
36092;BME280;22147;52.388;13.390;2024-03-06T04:35:34;101400.28;;;-4.57;100.00
36092;BME280;22147;52.388;13.390;2024-03-06T04:38:05;101405.50;;;-4.56;100.00
36092;BME280;22147;52.388;13.390;2024-03-06T04:40:36;101409.25;;;-4.57;100.00
36092;BME280;22147;52.388;13.390;2024-03-06T04:43:06;101406.75;;;-4.58;100.00
36092;BME280;22147;52.388;13.390;2024-03-06T04:45:37;101403.41;;;-4.60;100.00
36092;BME280;22147;52.388;13.390;2024-03-06T04:48:07;101402.41;;;-4.59;100.00
36092;BME280;22147;52.388;13.390;2024-03-06T04:50:38;101409.47;;;-4.58;100.00
36092;BME280;22147;52.388;13.390;2024-03-06T04:53:08;101418.66;;;-4.59;100.00
36092;BME280;22147;52.388;13.390;2024-03-06T04:55:40;101415.31;;;-4.61;100.00
36092;BME280;22147;52.388;13.390;2024-03-06T04:58:12;101415.72;;;-4.64;100.00
36092;BME280;22147;52.388;13.390;2024-03-06T05:00:43;101416.34;;;-4.62;100.00
36092;BME280;22147;52.388;13.390;2024-03-06T05:03:13;101421.16;;;-4.64;100.00
36092;BME280;22147;52.388;13.390;2024-03-06T05:05:56;101424.69;;;-4.64;100.00
36092;BME280;22147;52.388;13.390;2024-03-06T05:08:41;101428.66;;;-4.66;100.00
36092;BME280;22147;52.388;13.390;2024-03-06T05:11:25;101435.13;;;-4.67;100.00
36092;BME280;22147;52.388;13.390;2024-03-06T05:14:09;101431.81;;;-4.69;100.00
36092;BME280;22147;52.388;13.390;2024-03-06T05:16:53;101433.03;;;-4.72;100.00
36092;BME280;22147;52.388;13.390;2024-03-06T05:19:37;101441.78;;;-4.70;100.00
36092;BME280;22147;52.388;13.390;2024-03-06T05:22:21;101442.03;;;-4.72;100.00
36092;BME280;22147;52.388;13.390;2024-03-06T05:25:06;101456.59;;;-4.73;100.00
36092;BME280;22147;52.388;13.390;2024-03-06T05:27:50;101455.16;;;-4.75;100.00
36092;BME280;22147;52.388;13.390;2024-03-06T05:30:35;101462.66;;;-4.77;100.00
36092;BME280;22147;52.388;13.390;2024-03-06T05:33:19;101461.00;;;-4.78;100.00
36092;BME280;22147;52.388;13.390;2024-03-06T05:36:03;101465.56;;;-4.79;100.00
36092;BME280;22147;52.388;13.390;2024-03-06T05:38:48;101465.56;;;-4.79;100.00
36092;BME280;22147;52.388;13.390;2024-03-06T05:41:33;101469.34;;;-4.80;100.00
36092;BME280;22147;52.388;13.390;2024-03-06T05:44:17;101470.34;;;-4.81;100.00
36092;BME280;22147;52.388;13.390;2024-03-06T05:47:02;101475.56;;;-4.79;100.00
36092;BME280;22147;52.388;13.390;2024-03-06T05:49:47;101481.63;;;-4.77;100.00
36092;BME280;22147;52.388;13.390;2024-03-06T05:52:33;101473.50;;;-4.71;100.00
36092;BME280;22147;52.388;13.390;2024-03-06T05:55:20;101490.38;;;-4.62;100.00
36092;BME280;22147;52.388;13.390;2024-03-06T05:58:04;101495.38;;;-4.45;100.00
36092;BME280;22147;52.388;13.390;2024-03-06T06:00:42;101495.16;;;-4.31;100.00
36092;BME280;22147;52.388;13.390;2024-03-06T06:03:13;101500.97;;;-4.14;100.00
36092;BME280;22147;52.388;13.390;2024-03-06T06:05:43;101499.06;;;-4.06;100.00
36092;BME280;22147;52.388;13.390;2024-03-06T06:08:14;101499.47;;;-3.83;100.00
36092;BME280;22147;52.388;13.390;2024-03-06T06:10:44;101502.53;;;-3.73;100.00
36092;BME280;22147;52.388;13.390;2024-03-06T06:13:14;101501.03;;;-3.55;100.00
36092;BME280;22147;52.388;13.390;2024-03-06T06:15:44;101511.22;;;-3.44;100.00
36092;BME280;22147;52.388;13.390;2024-03-06T06:18:15;101508.03;;;-3.41;100.00
36092;BME280;22147;52.388;13.390;2024-03-06T06:20:45;101514.09;;;-3.39;100.00
36092;BME280;22147;52.388;13.390;2024-03-06T06:23:16;101511.59;;;-3.34;100.00
36092;BME280;22147;52.388;13.390;2024-03-06T06:25:46;101512.59;;;-3.28;100.00
36092;BME280;22147;52.388;13.390;2024-03-06T06:28:17;101518.81;;;-3.21;100.00
36092;BME280;22147;52.388;13.390;2024-03-06T06:30:47;101529.03;;;-3.16;100.00
36092;BME280;22147;52.388;13.390;2024-03-06T06:33:20;101528.59;;;-3.07;100.00
36092;BME280;22147;52.388;13.390;2024-03-06T06:35:51;101531.88;;;-2.98;100.00
36092;BME280;22147;52.388;13.390;2024-03-06T06:38:22;101537.88;;;-2.89;100.00
36092;BME280;22147;52.388;13.390;2024-03-06T06:40:52;101540.13;;;-2.79;100.00
36092;BME280;22147;52.388;13.390;2024-03-06T06:43:22;101537.72;;;-2.69;100.00
36092;BME280;22147;52.388;13.390;2024-03-06T06:45:53;101538.53;;;-2.62;100.00
36092;BME280;22147;52.388;13.390;2024-03-06T06:48:25;101533.47;;;-2.58;100.00
36092;BME280;22147;52.388;13.390;2024-03-06T06:50:55;101541.81;;;-2.53;100.00
36092;BME280;22147;52.388;13.390;2024-03-06T06:53:25;101541.16;;;-2.49;100.00
36092;BME280;22147;52.388;13.390;2024-03-06T06:55:55;101549.47;;;-2.43;100.00
36092;BME280;22147;52.388;13.390;2024-03-06T06:58:26;101559.25;;;-2.36;100.00
36092;BME280;22147;52.388;13.390;2024-03-06T07:00:59;101559.75;;;-2.20;100.00
36092;BME280;22147;52.388;13.390;2024-03-06T07:03:30;101553.88;;;-2.17;100.00
36092;BME280;22147;52.388;13.390;2024-03-06T07:06:00;101563.81;;;-2.05;100.00
36092;BME280;22147;52.388;13.390;2024-03-06T07:08:30;101560.78;;;-1.96;100.00
36092;BME280;22147;52.388;13.390;2024-03-06T07:11:01;101573.13;;;-1.94;100.00
36092;BME280;22147;52.388;13.390;2024-03-06T07:13:31;101571.22;;;-1.93;100.00
36092;BME280;22147;52.388;13.390;2024-03-06T07:16:03;101580.81;;;-1.91;100.00
36092;BME280;22147;52.388;13.390;2024-03-06T07:18:34;101579.78;;;-1.90;100.00
36092;BME280;22147;52.388;13.390;2024-03-06T07:21:04;101582.03;;;-1.87;100.00
36092;BME280;22147;52.388;13.390;2024-03-06T07:23:35;101572.97;;;-1.80;100.00
36092;BME280;22147;52.388;13.390;2024-03-06T07:26:05;101582.91;;;-1.86;100.00
36092;BME280;22147;52.388;13.390;2024-03-06T07:28:34;101592.72;;;-1.85;100.00
36092;BME280;22147;52.388;13.390;2024-03-06T07:31:03;101591.16;;;-1.74;100.00
36092;BME280;22147;52.388;13.390;2024-03-06T07:33:32;101590.03;;;-1.67;100.00
36092;BME280;22147;52.388;13.390;2024-03-06T07:36:04;101599.34;;;-1.56;100.00
36092;BME280;22147;52.388;13.390;2024-03-06T07:38:34;101598.53;;;-1.56;100.00
36092;BME280;22147;52.388;13.390;2024-03-06T07:41:05;101599.28;;;-1.49;100.00
36092;BME280;22147;52.388;13.390;2024-03-06T07:43:37;101598.16;;;-1.41;100.00
36092;BME280;22147;52.388;13.390;2024-03-06T07:46:08;101599.28;;;-1.31;100.00
36092;BME280;22147;52.388;13.390;2024-03-06T07:48:44;101599.41;;;-1.26;100.00
36092;BME280;22147;52.388;13.390;2024-03-06T07:51:14;101603.34;;;-1.21;100.00
36092;BME280;22147;52.388;13.390;2024-03-06T07:53:44;101607.00;;;-1.09;100.00
36092;BME280;22147;52.388;13.390;2024-03-06T07:56:15;101610.16;;;-0.94;100.00
36092;BME280;22147;52.388;13.390;2024-03-06T07:58:45;101613.22;;;-0.72;100.00
36092;BME280;22147;52.388;13.390;2024-03-06T08:01:16;101619.22;;;-0.51;100.00
36092;BME280;22147;52.388;13.390;2024-03-06T08:03:47;101617.22;;;-0.44;100.00
36092;BME280;22147;52.388;13.390;2024-03-06T08:06:18;101622.47;;;-0.31;100.00
36092;BME280;22147;52.388;13.390;2024-03-06T08:08:49;101623.97;;;0.07;100.00
36092;BME280;22147;52.388;13.390;2024-03-06T08:11:21;101619.22;;;0.38;100.00
36092;BME280;22147;52.388;13.390;2024-03-06T08:13:58;101632.53;;;0.58;100.00
36092;BME280;22147;52.388;13.390;2024-03-06T08:16:30;101632.13;;;0.78;100.00
36092;BME280;22147;52.388;13.390;2024-03-06T08:19:05;101633.03;;;1.07;100.00
36092;BME280;22147;52.388;13.390;2024-03-06T08:21:33;101642.75;;;1.15;100.00
36092;BME280;22147;52.388;13.390;2024-03-06T08:24:01;101638.78;;;1.22;100.00
36092;BME280;22147;52.388;13.390;2024-03-06T08:26:30;101643.16;;;1.35;100.00
36092;BME280;22147;52.388;13.390;2024-03-06T08:28:58;101645.97;;;1.69;100.00
36092;BME280;22147;52.388;13.390;2024-03-06T08:31:27;101659.56;;;1.93;100.00
36092;BME280;22147;52.388;13.390;2024-03-06T08:33:55;101651.25;;;2.21;100.00
36092;BME280;22147;52.388;13.390;2024-03-06T08:36:23;101659.84;;;2.64;100.00
36092;BME280;22147;52.388;13.390;2024-03-06T08:38:52;101664.47;;;3.02;100.00
36092;BME280;22147;52.388;13.390;2024-03-06T08:41:20;101663.03;;;2.95;100.00
36092;BME280;22147;52.388;13.390;2024-03-06T08:43:49;101660.84;;;2.97;100.00
36092;BME280;22147;52.388;13.390;2024-03-06T08:46:20;101671.84;;;2.97;100.00
36092;BME280;22147;52.388;13.390;2024-03-06T08:48:48;101662.25;;;3.21;100.00
36092;BME280;22147;52.388;13.390;2024-03-06T08:51:17;101669.78;;;3.31;100.00
36092;BME280;22147;52.388;13.390;2024-03-06T08:53:45;101669.00;;;3.36;100.00
36092;BME280;22147;52.388;13.390;2024-03-06T08:56:18;101663.53;;;3.36;100.00
36092;BME280;22147;52.388;13.390;2024-03-06T08:58:48;101670.66;;;3.59;100.00
36092;BME280;22147;52.388;13.390;2024-03-06T09:01:19;101678.94;;;3.64;100.00
36092;BME280;22147;52.388;13.390;2024-03-06T09:03:49;101680.34;;;3.66;100.00
36092;BME280;22147;52.388;13.390;2024-03-06T09:06:19;101679.78;;;3.92;100.00
36092;BME280;22147;52.388;13.390;2024-03-06T09:08:49;101676.06;;;4.08;100.00
36092;BME280;22147;52.388;13.390;2024-03-06T09:11:20;101665.56;;;4.32;100.00
36092;BME280;22147;52.388;13.390;2024-03-06T09:13:50;101676.78;;;4.25;100.00
36092;BME280;22147;52.388;13.390;2024-03-06T09:16:20;101680.06;;;4.27;100.00
36092;BME280;22147;52.388;13.390;2024-03-06T09:18:50;101676.03;;;4.35;100.00
36092;BME280;22147;52.388;13.390;2024-03-06T09:21:20;101682.50;;;4.56;100.00
36092;BME280;22147;52.388;13.390;2024-03-06T09:23:52;101685.09;;;4.73;100.00
36092;BME280;22147;52.388;13.390;2024-03-06T09:26:22;101684.59;;;4.81;100.00
36092;BME280;22147;52.388;13.390;2024-03-06T09:28:52;101697.00;;;4.84;100.00
36092;BME280;22147;52.388;13.390;2024-03-06T09:31:23;101685.06;;;5.16;100.00
36092;BME280;22147;52.388;13.390;2024-03-06T09:33:53;101685.84;;;4.63;100.00
36092;BME280;22147;52.388;13.390;2024-03-06T09:36:24;101696.47;;;4.87;100.00
36092;BME280;22147;52.388;13.390;2024-03-06T09:38:55;101691.00;;;5.55;99.90
36092;BME280;22147;52.388;13.390;2024-03-06T09:41:25;101692.72;;;5.82;94.72
36092;BME280;22147;52.388;13.390;2024-03-06T09:43:58;101697.97;;;5.94;91.76
36092;BME280;22147;52.388;13.390;2024-03-06T09:46:29;101699.28;;;5.55;90.52
36092;BME280;22147;52.388;13.390;2024-03-06T09:49:01;101698.31;;;5.97;93.13
36092;BME280;22147;52.388;13.390;2024-03-06T09:51:32;101705.22;;;6.20;88.10
36092;BME280;22147;52.388;13.390;2024-03-06T09:54:05;101689.06;;;5.61;90.09
36092;BME280;22147;52.388;13.390;2024-03-06T09:56:42;101697.38;;;5.66;90.74
36092;BME280;22147;52.388;13.390;2024-03-06T09:59:14;101695.97;;;5.58;94.39
36092;BME280;22147;52.388;13.390;2024-03-06T10:01:56;101702.16;;;6.11;90.02
36092;BME280;22147;52.388;13.390;2024-03-06T10:04:28;101704.66;;;6.59;87.94
36092;BME280;22147;52.388;13.390;2024-03-06T10:07:02;101711.28;;;6.48;84.18
36092;BME280;22147;52.388;13.390;2024-03-06T10:09:33;101706.03;;;6.36;87.65
36092;BME280;22147;52.388;13.390;2024-03-06T10:12:04;101706.59;;;6.23;84.88
36092;BME280;22147;52.388;13.390;2024-03-06T10:14:36;101715.88;;;7.09;83.16
36092;BME280;22147;52.388;13.390;2024-03-06T10:17:06;101713.13;;;7.14;80.33
36092;BME280;22147;52.388;13.390;2024-03-06T10:19:36;101717.16;;;7.47;79.82
36092;BME280;22147;52.388;13.390;2024-03-06T10:22:09;101712.03;;;7.70;76.07
36092;BME280;22147;52.388;13.390;2024-03-06T10:24:40;101719.81;;;7.63;73.79
36092;BME280;22147;52.388;13.390;2024-03-06T10:27:17;101712.63;;;7.62;75.69
36092;BME280;22147;52.388;13.390;2024-03-06T10:30:04;101711.81;;;7.66;73.42
36092;BME280;22147;52.388;13.390;2024-03-06T10:32:34;101707.28;;;7.21;75.80
36092;BME280;22147;52.388;13.390;2024-03-06T10:35:04;101704.88;;;6.99;76.63
36092;BME280;22147;52.388;13.390;2024-03-06T10:37:34;101703.13;;;7.23;75.43
36092;BME280;22147;52.388;13.390;2024-03-06T10:40:03;101707.88;;;7.02;75.54
36092;BME280;22147;52.388;13.390;2024-03-06T10:42:39;101701.88;;;6.28;79.76
36092;BME280;22147;52.388;13.390;2024-03-06T10:45:14;101702.63;;;7.06;80.08
36092;BME280;22147;52.388;13.390;2024-03-06T10:47:48;101705.91;;;7.83;74.96
36092;BME280;22147;52.388;13.390;2024-03-06T10:50:21;101707.63;;;8.13;74.01
36092;BME280;22147;52.388;13.390;2024-03-06T10:52:53;101703.91;;;7.89;69.98
36092;BME280;22147;52.388;13.390;2024-03-06T10:55:28;101703.97;;;7.79;72.21
36092;BME280;22147;52.388;13.390;2024-03-06T10:58:07;101699.25;;;8.24;74.27
36092;BME280;22147;52.388;13.390;2024-03-06T11:00:41;101699.41;;;8.43;70.13
36092;BME280;22147;52.388;13.390;2024-03-06T11:03:13;101712.03;;;7.75;70.48
36092;BME280;22147;52.388;13.390;2024-03-06T11:05:45;101704.41;;;7.51;72.54
36092;BME280;22147;52.388;13.390;2024-03-06T11:08:18;101699.06;;;7.05;73.71
36092;BME280;22147;52.388;13.390;2024-03-06T11:10:50;101698.28;;;6.64;75.35
36092;BME280;22147;52.388;13.390;2024-03-06T11:13:25;101699.09;;;6.75;74.26
36092;BME280;22147;52.388;13.390;2024-03-06T11:15:58;101694.44;;;6.60;75.96
36092;BME280;22147;52.388;13.390;2024-03-06T11:24:16;101694.84;;;7.23;72.57
36092;BME280;22147;52.388;13.390;2024-03-06T11:26:59;101692.44;;;7.66;72.93
36092;BME280;22147;52.388;13.390;2024-03-06T11:30:06;101691.00;;;7.79;68.45
36092;BME280;22147;52.388;13.390;2024-03-06T11:33:00;101695.03;;;7.42;66.78
36092;BME280;22147;52.388;13.390;2024-03-06T11:35:31;101689.97;;;7.65;67.33
36092;BME280;22147;52.388;13.390;2024-03-06T11:38:05;101687.75;;;7.62;66.50
36092;BME280;22147;52.388;13.390;2024-03-06T11:40:44;101686.34;;;7.09;69.36
36092;BME280;22147;52.388;13.390;2024-03-06T11:43:26;101688.03;;;6.85;69.06
36092;BME280;22147;52.388;13.390;2024-03-06T11:46:10;101684.44;;;6.89;71.15
36092;BME280;22147;52.388;13.390;2024-03-06T11:48:41;101684.78;;;6.47;72.23
36092;BME280;22147;52.388;13.390;2024-03-06T11:51:12;101679.00;;;6.28;76.04
36092;BME280;22147;52.388;13.390;2024-03-06T11:53:43;101683.13;;;6.15;76.25
36092;BME280;22147;52.388;13.390;2024-03-06T11:56:14;101684.19;;;5.94;76.72
36092;BME280;22147;52.388;13.390;2024-03-06T11:58:46;101684.16;;;5.78;78.59
36092;BME280;22147;52.388;13.390;2024-03-06T12:01:19;101675.41;;;6.27;77.91
36092;BME280;22147;52.388;13.390;2024-03-06T12:03:49;101672.31;;;6.85;75.28
36092;BME280;22147;52.388;13.390;2024-03-06T12:06:20;101686.31;;;7.20;72.25
36092;BME280;22147;52.388;13.390;2024-03-06T12:08:54;101681.03;;;7.23;67.95
36092;BME280;22147;52.388;13.390;2024-03-06T12:11:24;101690.97;;;7.19;67.91
36092;BME280;22147;52.388;13.390;2024-03-06T12:13:56;101676.94;;;7.10;69.34
36092;BME280;22147;52.388;13.390;2024-03-06T12:16:24;101671.75;;;6.83;69.98
36092;BME280;22147;52.388;13.390;2024-03-06T12:18:59;101674.81;;;6.77;71.76
36092;BME280;22147;52.388;13.390;2024-03-06T12:21:34;101679.25;;;6.62;72.58
36092;BME280;22147;52.388;13.390;2024-03-06T12:24:08;101682.28;;;6.56;72.52
36092;BME280;22147;52.388;13.390;2024-03-06T12:26:39;101679.00;;;6.43;71.40
36092;BME280;22147;52.388;13.390;2024-03-06T12:29:12;101672.13;;;6.36;74.04
36092;BME280;22147;52.388;13.390;2024-03-06T12:31:47;101674.25;;;6.85;72.90
36092;BME280;22147;52.388;13.390;2024-03-06T12:34:17;101669.38;;;7.31;68.07
36092;BME280;22147;52.388;13.390;2024-03-06T12:36:47;101673.50;;;7.39;67.20
36092;BME280;22147;52.388;13.390;2024-03-06T12:39:18;101670.44;;;7.41;66.88
36092;BME280;22147;52.388;13.390;2024-03-06T12:41:53;101669.69;;;7.25;67.70
36092;BME280;22147;52.388;13.390;2024-03-06T12:44:22;101676.41;;;7.03;66.57
36092;BME280;22147;52.388;13.390;2024-03-06T12:46:50;101671.72;;;6.93;66.77
36092;BME280;22147;52.388;13.390;2024-03-06T12:49:18;101674.44;;;7.09;67.61
36092;BME280;22147;52.388;13.390;2024-03-06T12:51:47;101674.72;;;7.12;65.94
36092;BME280;22147;52.388;13.390;2024-03-06T12:54:15;101667.53;;;7.11;64.63
36092;BME280;22147;52.388;13.390;2024-03-06T12:56:43;101673.09;;;7.01;65.65
36092;BME280;22147;52.388;13.390;2024-03-06T12:59:12;101672.59;;;6.79;69.10
36092;BME280;22147;52.388;13.390;2024-03-06T13:01:40;101665.75;;;6.61;69.75
36092;BME280;22147;52.388;13.390;2024-03-06T13:04:09;101669.47;;;7.11;68.76
36092;BME280;22147;52.388;13.390;2024-03-06T13:06:40;101667.63;;;7.51;65.32